createdAt,value
2019-05-18T00:02:57.872Z,45.7
2019-05-18T00:07:58.089Z,45.7
2019-05-18T00:12:58.315Z,45.6
2019-05-18T00:17:58.542Z,45.6
2019-05-18T00:22:58.777Z,45.6
2019-05-18T00:27:59.013Z,45.5
2019-05-18T00:32:59.250Z,45.4
2019-05-18T00:37:59.482Z,45.4
2019-05-18T00:42:59.701Z,45.4
2019-05-18T00:47:59.922Z,45.3
2019-05-18T00:53:00.147Z,45.3
2019-05-18T00:58:00.366Z,45.2
2019-05-18T01:03:00.589Z,45.2
2019-05-18T01:08:00.810Z,45.2
2019-05-18T01:13:02.463Z,45.1
2019-05-18T01:18:02.890Z,45.1
2019-05-18T01:23:03.115Z,45.1
2019-05-18T01:28:03.340Z,45
2019-05-18T01:33:03.572Z,45
2019-05-18T01:38:03.767Z,44.9
2019-05-18T01:43:03.945Z,44.9
2019-05-18T01:48:13.037Z,44.8
2019-05-18T01:53:13.715Z,44.8
2019-05-18T01:58:13.923Z,44.7
2019-05-18T02:03:14.091Z,44.7
2019-05-18T02:08:14.265Z,44.7
2019-05-18T02:13:14.468Z,44.6
2019-05-18T02:18:28.139Z,44.6
2019-05-18T02:23:29.061Z,44.6
2019-05-18T02:28:29.255Z,44.5
2019-05-18T02:33:29.453Z,44.4
2019-05-18T02:38:29.611Z,44.4
2019-05-18T02:43:29.784Z,44.4
2019-05-18T02:48:45.759Z,44.3
2019-05-18T02:53:47.926Z,44.3
2019-05-18T02:58:48.107Z,44.2
2019-05-18T03:03:48.283Z,44.2
2019-05-18T03:08:48.453Z,44.2
2019-05-18T03:13:48.645Z,44.1
2019-05-18T03:19:06.666Z,44.1
2019-05-18T03:24:07.726Z,44.1
2019-05-18T03:29:07.919Z,44
2019-05-18T03:34:08.120Z,43.9
2019-05-18T03:39:08.510Z,43.9
2019-05-18T03:44:08.665Z,43.9
2019-05-18T03:49:25.211Z,43.8
2019-05-18T03:54:26.206Z,43.8
2019-05-18T03:59:26.370Z,43.7
2019-05-18T04:04:26.544Z,43.7
2019-05-18T04:09:26.681Z,43.7
2019-05-18T04:14:26.851Z,43.6
2019-05-18T04:19:44.639Z,43.6
2019-05-18T04:24:45.099Z,43.6
2019-05-18T04:29:45.298Z,43.5
2019-05-18T04:34:45.482Z,43.5
2019-05-18T04:39:45.658Z,43.4
2019-05-18T04:44:45.805Z,43.4
2019-05-18T04:50:02.013Z,43.4
2019-05-18T04:55:05.696Z,43.3
2019-05-18T05:00:06.046Z,43.3
2019-05-18T05:05:07.867Z,43.3
2019-05-18T05:10:08.007Z,43.2
2019-05-18T05:15:08.191Z,43.2
2019-05-18T05:20:19.045Z,43.1
2019-05-18T05:25:21.459Z,43.1
2019-05-18T05:30:23.264Z,43.1
2019-05-18T05:35:23.413Z,43
2019-05-18T05:40:23.621Z,42.9
2019-05-18T05:45:25.675Z,42.9
2019-05-18T05:50:35.657Z,42.9
2019-05-18T05:55:36.435Z,42.9
2019-05-18T06:00:38.253Z,42.8
2019-05-18T06:05:40.193Z,42.7
2019-05-18T06:10:41.580Z,42.7
2019-05-18T06:15:43.408Z,42.7
2019-05-18T06:20:51.255Z,42.7
2019-05-18T06:25:53.645Z,42.6
2019-05-18T06:30:55.455Z,42.6
2019-05-18T06:35:55.600Z,42.6
2019-05-18T06:40:55.752Z,42.5
2019-05-18T06:45:57.557Z,42.5
2019-05-18T06:51:06.996Z,42.4
2019-05-18T06:56:09.338Z,42.4
2019-05-18T07:01:11.372Z,42.4
2019-05-18T07:06:13.194Z,42.3
2019-05-18T07:11:14.990Z,42.3
2019-05-18T07:16:16.808Z,42.2
2019-05-18T07:21:22.106Z,42.2
2019-05-18T07:26:24.370Z,42.2
2019-05-18T07:31:25.709Z,42.1
2019-05-18T07:36:27.502Z,42.1
2019-05-18T07:41:29.274Z,42.1
2019-05-18T07:46:31.041Z,42.1
2019-05-18T07:51:36.806Z,42
2019-05-18T07:56:39.177Z,41.9
2019-05-18T08:01:40.938Z,41.9
2019-05-18T08:06:42.693Z,41.9
2019-05-18T08:11:44.454Z,41.9
2019-05-18T08:16:46.203Z,41.8
2019-05-18T08:21:53.019Z,41.7
2019-05-18T08:26:55.220Z,41.7
2019-05-18T08:31:57.714Z,41.7
2019-05-18T08:36:59.807Z,41.7
2019-05-18T08:42:01.550Z,41.6
2019-05-18T08:47:03.286Z,41.6
2019-05-18T08:52:08.069Z,41.6
2019-05-18T08:57:10.456Z,41.5
2019-05-18T09:02:12.338Z,41.5
2019-05-18T09:07:14.156Z,41.4
2019-05-18T09:12:15.934Z,41.4
2019-05-18T09:17:17.669Z,41.4
2019-05-18T09:22:22.991Z,41.4
2019-05-18T09:27:24.696Z,41.3
2019-05-18T09:32:26.575Z,41.3
2019-05-18T09:37:28.376Z,41.2
2019-05-18T09:42:30.197Z,41.2
2019-05-18T09:47:31.710Z,41.2
2019-05-18T09:52:44.598Z,41.1
2019-05-18T09:57:46.945Z,41.1
2019-05-18T10:02:48.676Z,41.1
2019-05-18T10:07:50.393Z,41.1
2019-05-18T10:12:52.122Z,41
2019-05-18T10:17:53.854Z,41
2019-05-18T10:23:10.374Z,40.9
2019-05-18T10:28:13.735Z,40.9
2019-05-18T10:33:15.497Z,40.9
2019-05-18T10:38:17.277Z,40.9
2019-05-18T10:43:19.048Z,40.8
2019-05-18T10:48:20.818Z,40.8
2019-05-18T10:53:28.574Z,40.8
2019-05-18T10:58:30.821Z,40.7
2019-05-18T11:03:32.588Z,40.7
2019-05-18T11:08:34.348Z,40.6
2019-05-18T11:13:35.155Z,40.6
2019-05-18T11:18:36.911Z,40.6
2019-05-18T11:23:43.469Z,40.6
2019-05-18T11:28:46.104Z,40.5
2019-05-18T11:33:47.935Z,40.5
2019-05-18T11:38:49.019Z,40.4
2019-05-18T11:43:50.792Z,40.4
2019-05-18T11:48:52.545Z,40.4
2019-05-18T11:53:58.053Z,40.4
2019-05-18T11:59:00.233Z,40.4
2019-05-18T12:04:01.997Z,40.3
2019-05-18T12:09:03.762Z,40.2
2019-05-18T12:14:05.517Z,40.2
2019-05-18T12:19:07.264Z,40.2
2019-05-18T12:24:15.077Z,40.2
2019-05-18T12:29:17.438Z,40.1
2019-05-18T12:34:19.179Z,40.1
2019-05-18T12:39:20.922Z,40.1
2019-05-18T12:44:22.670Z,40.1
2019-05-18T12:49:24.418Z,40
2019-05-18T12:54:29.404Z,40
2019-05-18T12:59:32.932Z,39.9
2019-05-18T13:04:34.705Z,39.9
2019-05-18T13:09:36.517Z,39.9
2019-05-18T13:14:38.264Z,39.9
2019-05-18T13:19:40.790Z,39.9
2019-05-18T13:24:45.076Z,39.8
2019-05-18T13:29:47.371Z,39.8
2019-05-18T13:34:49.118Z,39.7
2019-05-18T13:39:51.044Z,39.7
2019-05-18T13:44:52.775Z,39.7
2019-05-18T13:49:54.499Z,39.7
2019-05-18T13:55:03.455Z,39.6
2019-05-18T14:00:06.055Z,39.6
2019-05-18T14:05:07.798Z,39.6
2019-05-18T14:10:12.143Z,39.6
2019-05-18T14:15:14.326Z,39.5
2019-05-18T14:20:16.294Z,39.5
2019-05-18T14:25:20.128Z,39.4
2019-05-18T14:30:21.589Z,39.4
2019-05-18T14:35:23.928Z,39.4
2019-05-18T14:40:30.067Z,39.4
2019-05-18T14:45:32.982Z,39.4
2019-05-18T14:50:34.850Z,39.3
2019-05-18T14:55:36.625Z,39.2
2019-05-18T15:00:38.336Z,39.2
2019-05-18T15:05:40.210Z,39.2
2019-05-18T15:10:42.055Z,39.2
2019-05-18T15:15:42.417Z,39.2
2019-05-18T15:20:44.111Z,39.1
2019-05-18T15:25:50.488Z,39.1
2019-05-18T15:30:52.633Z,39.1
2019-05-18T15:35:53.369Z,39.1
2019-05-18T15:40:55.071Z,39.1
2019-05-18T15:45:55.821Z,39
2019-05-18T15:50:59.300Z,39
2019-05-18T15:56:05.590Z,38.9
2019-05-18T16:01:07.780Z,38.9
2019-05-18T16:06:09.508Z,38.9
2019-05-18T16:11:10.528Z,38.9
2019-05-18T16:16:12.455Z,38.8
2019-05-18T16:21:14.217Z,38.8
2019-05-18T16:26:21.365Z,38.8
2019-05-18T16:31:23.105Z,38.7
2019-05-18T16:36:24.813Z,38.7
2019-05-18T16:41:26.504Z,38.7
2019-05-18T16:46:28.195Z,38.7
2019-05-18T16:51:29.880Z,38.6
2019-05-18T16:56:35.020Z,38.6
2019-05-18T17:01:37.224Z,38.6
2019-05-18T17:06:38.940Z,38.6
2019-05-18T17:11:40.655Z,38.6
2019-05-18T17:16:42.362Z,38.5
2019-05-18T17:21:43.564Z,38.5
2019-05-18T17:26:52.642Z,38.5
2019-05-18T17:31:54.483Z,38.4
2019-05-18T17:36:56.230Z,38.4
2019-05-18T17:41:58.288Z,38.4
2019-05-18T17:46:59.069Z,39.5
2019-05-18T17:52:00.799Z,40.4
2019-05-18T17:57:08.312Z,41.3
2019-05-18T18:02:10.639Z,42.1
2019-05-18T18:07:12.462Z,42.7
2019-05-18T18:12:12.606Z,43.4
2019-05-18T18:17:12.781Z,43.9
2019-05-18T18:22:12.984Z,44.4
2019-05-18T18:27:24.448Z,44.7
2019-05-18T18:32:25.481Z,45
2019-05-18T18:37:25.711Z,45.2
2019-05-18T18:42:25.954Z,45.3
2019-05-18T18:47:26.209Z,45.2
2019-05-18T18:52:26.443Z,45.5
2019-05-18T18:57:39.897Z,45.5
2019-05-18T19:02:40.988Z,45.5
2019-05-18T19:07:41.262Z,45.4
2019-05-18T19:12:41.613Z,45.6
2019-05-18T19:17:41.884Z,45.7
2019-05-18T19:22:42.160Z,45.6
2019-05-18T19:27:53.933Z,45.6
2019-05-18T19:32:56.265Z,45.6
2019-05-18T19:37:56.508Z,45.6
2019-05-18T19:42:56.756Z,45.5
2019-05-18T19:47:56.983Z,45.7
2019-05-18T19:52:58.000Z,45.8
2019-05-18T19:58:08.357Z,45.8
2019-05-18T20:03:09.153Z,45.7
2019-05-18T20:08:09.379Z,45.7
2019-05-18T20:13:09.642Z,45.6
2019-05-18T20:18:09.880Z,45.5
2019-05-18T20:23:10.142Z,45.7
2019-05-18T20:28:22.828Z,46.1
2019-05-18T20:33:23.717Z,46.2
2019-05-18T20:38:23.966Z,46.1
2019-05-18T20:43:24.241Z,45.9
2019-05-18T20:48:24.464Z,45.9
2019-05-18T20:53:24.706Z,45.9
2019-05-18T20:58:38.564Z,45.8
2019-05-18T21:03:40.440Z,45.8
2019-05-18T21:08:40.667Z,45.7
2019-05-18T21:13:41.135Z,45.6
2019-05-18T21:18:42.077Z,45.6
2019-05-18T21:23:42.321Z,45.5
2019-05-18T21:28:54.626Z,45.4
2019-05-18T21:33:55.725Z,45.4
2019-05-18T21:38:55.955Z,45.2
2019-05-18T21:43:56.221Z,45.2
2019-05-18T21:48:56.462Z,45.1
2019-05-18T21:53:56.650Z,45.1
2019-05-18T21:59:10.478Z,45
2019-05-18T22:04:11.512Z,44.9
2019-05-18T22:09:11.732Z,44.9
2019-05-18T22:14:11.925Z,44.8
2019-05-18T22:19:12.135Z,44.7
2019-05-18T22:24:12.314Z,44.6
2019-05-18T22:29:12.530Z,44.6
2019-05-18T22:34:12.717Z,44.5
2019-05-18T22:39:12.902Z,44.4
2019-05-18T22:44:13.081Z,44.4
2019-05-18T22:49:13.307Z,44.3
2019-05-18T22:54:13.506Z,44.2
2019-05-18T22:59:13.663Z,44.1
2019-05-18T23:04:13.835Z,44.1
2019-05-18T23:09:13.990Z,44
2019-05-18T23:14:14.159Z,43.9
2019-05-18T23:19:14.326Z,43.8
2019-05-18T23:24:14.477Z,43.7
2019-05-18T23:29:14.664Z,43.7
2019-05-18T23:34:14.817Z,43.6
2019-05-18T23:39:14.989Z,43.6
2019-05-18T23:44:15.165Z,43.4
2019-05-18T23:49:15.328Z,43.4
2019-05-18T23:54:17.144Z,43.3
2019-05-18T23:59:18.941Z,43.3
